Time;durP1;ratioP1;P1;durP2;ratioP2;P2;SDS_P1;SDS_P2;PMS_P1;PMS_P2;Temp;Humidity;BMP_temperature;BMP_pressure;BME280_temperature;BME280_humidity;BME280_pressure;Samples;Min_cycle;Max_cycle;Signal;HPM_P1;HPM_P2
2022/01/21 00:01:26;;;;;;;34.00;13.63;;;;;;;-3.22;100.00;99798.00;4974770;28;20073;-79
2022/01/21 00:03:53;;;;;;;26.35;9.27;;;;;;;-3.38;100.00;99785.06;4989796;28;20142;-80
2022/01/21 00:06:18;;;;;;;13.07;6.15;;;;;;;-3.34;100.00;99803.78;4990898;28;20026;-81
2022/01/21 00:08:46;;;;;;;17.05;8.93;;;;;;;-3.36;100.00;99800.38;4990604;28;20139;-80
2022/01/21 00:11:14;;;;;;;10.32;5.30;;;;;;;-3.35;100.00;99814.81;4990638;28;20057;-81
2022/01/21 00:13:40;;;;;;;18.58;10.77;;;;;;;-3.43;100.00;99814.72;4991882;28;20149;-80
2022/01/21 00:16:26;;;;;;;14.40;8.27;;;;;;;-3.48;100.00;99808.72;5032560;28;20025;-80
2022/01/21 00:18:59;;;;;;;10.93;6.03;;;;;;;-3.44;100.00;99812.16;5032318;28;20029;-80
2022/01/21 00:32:23;;;;;;;7.70;3.50;;;;;;;-3.55;100.00;99819.66;5032432;28;20044;-80
2022/01/21 00:34:48;;;;;;;9.52;4.20;;;;;;;-3.53;100.00;99833.28;5031864;28;20021;-80
2022/01/21 00:37:14;;;;;;;9.73;4.93;;;;;;;-3.53;100.00;99826.50;5032590;28;20028;-80
2022/01/21 00:39:40;;;;;;;12.45;6.40;;;;;;;-3.55;100.00;99823.06;5030728;28;20432;-80
2022/01/21 00:42:31;;;;;;;14.77;7.50;;;;;;;-3.55;100.00;99829.84;5030863;28;20465;-81
2022/01/21 00:44:59;;;;;;;14.07;7.00;;;;;;;-3.66;100.00;99814.44;5032129;28;20385;-80
2022/01/21 00:47:24;;;;;;;15.90;10.02;;;;;;;-3.58;100.00;99822.16;5032185;28;20060;-80
2022/01/21 00:49:50;;;;;;;12.55;5.90;;;;;;;-3.56;100.00;99829.00;5032020;28;20108;-80
2022/01/21 00:52:15;;;;;;;8.50;4.30;;;;;;;-3.53;100.00;99840.91;5032287;28;20053;-80
2022/01/21 00:54:41;;;;;;;14.80;8.05;;;;;;;-3.53;100.00;99846.84;5030345;28;20022;-80
2022/01/21 00:57:06;;;;;;;7.95;4.90;;;;;;;-3.53;100.00;99846.84;5030358;28;20037;-80
2022/01/21 00:59:32;;;;;;;10.45;4.63;;;;;;;-3.58;100.00;99832.34;5032101;28;20030;-80
2022/01/21 01:01:58;;;;;;;7.95;4.18;;;;;;;-3.68;100.00;99821.19;5032029;28;20463;-80
2022/01/21 01:04:24;;;;;;;13.05;5.82;;;;;;;-3.57;100.00;99852.75;5032244;28;20057;-81
2022/01/21 01:06:50;;;;;;;8.70;3.35;;;;;;;-3.60;100.00;99851.84;5031627;28;20095;-80
2022/01/21 01:09:16;;;;;;;7.18;3.45;;;;;;;-3.63;100.00;99846.69;5031848;28;20420;-81
2022/01/21 01:20:02;;;;;;;6.88;3.45;;;;;;;-3.85;100.00;99840.47;5035553;28;20393;-80
2022/01/21 01:22:52;;;;;;;7.15;3.33;;;;;;;-3.67;100.00;99865.31;5034599;28;20099;-80
2022/01/21 01:28:02;;;;;;;11.15;3.50;;;;;;;-3.71;100.00;99879.69;5035664;28;20459;-80
2022/01/21 01:30:31;;;;;;;10.40;3.38;;;;;;;-3.72;100.00;99874.56;5034214;28;20052;-80
2022/01/21 01:32:59;;;;;;;6.97;2.95;;;;;;;-3.85;100.00;99856.59;5035384;28;20038;-80
2022/01/21 01:35:25;;;;;;;7.35;2.85;;;;;;;-3.80;100.00;99871.91;5035543;28;20088;-80
2022/01/21 01:40:52;;;;;;;7.43;3.03;;;;;;;-3.83;100.00;99862.56;5035686;28;20107;-80
2022/01/21 01:51:15;;;;;;;4.25;2.92;;;;;;;-3.98;100.00;99859.78;5035478;28;20040;-80
2022/01/21 01:53:48;;;;;;;4.32;2.97;;;;;;;-3.81;100.00;99886.31;5035514;28;20083;-80
2022/01/21 01:56:17;;;;;;;7.82;3.05;;;;;;;-3.91;100.00;99859.03;5031722;28;20042;-80
2022/01/21 01:58:43;;;;;;;8.98;3.28;;;;;;;-3.82;100.00;99884.63;5015064;28;20550;-80
2022/01/21 02:01:09;;;;;;;9.35;3.00;;;;;;;-3.79;100.00;99882.13;5015311;28;20025;-80
2022/01/21 02:03:36;;;;;;;6.97;2.53;;;;;;;-3.72;100.00;99888.16;5015177;28;20464;-80
2022/01/21 02:06:02;;;;;;;7.18;2.85;;;;;;;-3.78;100.00;99872.81;5014836;28;20034;-80
2022/01/21 02:08:28;;;;;;;9.02;3.60;;;;;;;-3.68;100.00;99874.63;5015258;28;20050;-80
2022/01/21 02:10:54;;;;;;;12.45;3.22;;;;;;;-3.66;100.00;99865.34;5013602;28;20026;-80
2022/01/21 02:13:28;;;;;;;8.02;3.30;;;;;;;-3.60;100.00;99877.31;5013839;28;20084;-80
2022/01/21 02:15:57;;;;;;;8.55;4.07;;;;;;;-3.57;100.00;99879.91;5014668;28;20033;-80
2022/01/21 02:24:23;;;;;;;4.32;2.83;;;;;;;-3.69;100.00;99857.66;4934970;29;20063;-80
2022/01/21 02:26:51;;;;;;;8.82;3.15;;;;;;;-3.67;100.00;99868.72;4933625;29;20032;-80
2022/01/21 02:29:27;;;;;;;10.20;3.22;;;;;;;-3.80;100.00;99857.50;4934881;29;20043;-80
2022/01/21 02:31:54;;;;;;;8.35;2.90;;;;;;;-3.79;100.00;99873.66;4934403;29;20036;-80
2022/01/21 02:34:19;;;;;;;8.43;4.07;;;;;;;-3.85;100.00;99874.38;4934563;29;20040;-80
2022/01/21 02:36:44;;;;;;;8.82;3.65;;;;;;;-3.97;100.00;99853.84;4934485;29;20063;-80
2022/01/21 02:39:10;;;;;;;9.93;4.05;;;;;;;-3.88;100.00;99879.44;4934754;29;20102;-80
2022/01/21 02:41:35;;;;;;;10.70;3.63;;;;;;;-3.90;100.00;99872.63;4934612;29;20066;-80
2022/01/21 02:44:01;;;;;;;6.25;3.15;;;;;;;-3.88;100.00;99887.06;4934349;29;20589;-80
2022/01/21 02:46:27;;;;;;;11.02;3.80;;;;;;;-3.91;100.00;99886.19;4918559;29;20063;-80
2022/01/21 02:48:53;;;;;;;7.95;3.85;;;;;;;-3.94;100.00;99892.06;4934243;29;20040;-80
2022/01/21 02:51:19;;;;;;;9.60;3.72;;;;;;;-3.94;100.00;99886.13;4934460;29;20510;-80
2022/01/21 02:56:12;;;;;;;10.55;3.80;;;;;;;-4.09;100.00;99879.97;4937872;29;20447;-81
2022/01/21 02:58:39;;;;;;;11.20;3.83;;;;;;;-4.10;100.00;99882.47;4937502;29;20027;-80
2022/01/21 03:01:05;;;;;;;10.27;4.50;;;;;;;-4.00;100.00;99907.25;4994112;28;20112;-80
2022/01/21 03:03:31;;;;;;;14.40;4.90;;;;;;;-4.09;100.00;99886.72;5014204;28;20040;-80
2022/01/21 03:05:56;;;;;;;7.00;3.20;;;;;;;-4.15;100.00;99886.66;5013957;28;20034;-80
2022/01/21 03:08:22;;;;;;;6.60;3.58;;;;;;;-4.09;100.00;99891.81;5013895;28;20105;-80
2022/01/21 03:10:48;;;;;;;11.23;4.57;;;;;;;-4.15;100.00;99886.66;5013888;28;20382;-80
2022/01/21 03:13:14;;;;;;;11.30;4.35;;;;;;;-4.05;100.00;99901.22;5013986;28;20029;-80
2022/01/21 03:15:40;;;;;;;8.63;3.83;;;;;;;-4.08;100.00;99904.59;5012672;28;20034;-80
2022/01/21 03:18:05;;;;;;;7.43;3.78;;;;;;;-4.09;100.00;99902.88;4996075;28;20057;-80
2022/01/21 03:20:31;;;;;;;9.35;4.10;;;;;;;-3.97;100.00;99909.81;5013784;28;20030;-80
2022/01/21 03:22:57;;;;;;;5.75;2.60;;;;;;;-3.91;100.00;99914.19;4995847;28;20030;-80
2022/01/21 03:25:22;;;;;;;7.50;3.53;;;;;;;-4.02;100.00;99897.03;4996242;28;20030;-80
2022/01/21 03:27:48;;;;;;;10.82;3.63;;;;;;;-3.92;100.00;99915.88;5013362;28;20102;-80
2022/01/21 03:30:13;;;;;;;6.90;3.47;;;;;;;-3.94;100.00;99909.03;5013645;28;20034;-80
2022/01/21 03:32:39;;;;;;;8.18;3.67;;;;;;;-3.92;100.00;99918.41;5013607;28;20026;-80
2022/01/21 03:35:05;;;;;;;9.48;2.97;;;;;;;-3.97;100.00;99914.06;5011970;28;20026;-80
2022/01/21 03:37:30;;;;;;;10.60;3.40;;;;;;;-3.97;100.00;99912.38;5013174;28;20030;-80
2022/01/21 03:39:56;;;;;;;10.10;3.20;;;;;;;-3.93;100.00;99929.41;5013339;28;20030;-80
2022/01/21 03:42:22;;;;;;;9.02;3.00;;;;;;;-3.99;100.00;99915.75;4995935;28;20343;-80
2022/01/21 03:44:47;;;;;;;10.60;3.10;;;;;;;-3.96;100.00;99926.81;5013467;28;20038;-80
2022/01/21 03:47:12;;;;;;;8.32;3.13;;;;;;;-3.92;100.00;99930.25;5013537;28;20021;-80
2022/01/21 03:49:41;;;;;;;8.82;3.22;;;;;;;-3.93;100.00;99916.69;5013614;28;20036;-80
2022/01/21 03:52:07;;;;;;;12.07;3.67;;;;;;;-3.88;100.00;99915.06;5012914;28;20385;-80
2022/01/21 03:54:35;;;;;;;10.13;3.00;;;;;;;-3.86;100.00;99920.19;5013191;28;20034;-80
2022/01/21 03:57:01;;;;;;;8.65;3.50;;;;;;;-3.92;100.00;99908.22;5012839;28;20382;-80
2022/01/21 03:59:27;;;;;;;10.48;3.55;;;;;;;-3.89;100.00;99905.72;5013290;28;20077;-80
2022/01/21 04:01:52;;;;;;;6.10;3.25;;;;;;;-3.83;100.00;99913.47;4995226;28;20030;-80
2022/01/21 04:04:17;;;;;;;9.55;3.33;;;;;;;-3.93;100.00;99900.56;5013203;28;20022;-80
2022/01/21 04:06:43;;;;;;;7.95;3.00;;;;;;;-3.86;100.00;99930.38;5011554;28;20401;-80
2022/01/21 04:09:08;;;;;;;10.82;3.30;;;;;;;-3.86;100.00;99918.50;5012812;28;20138;-80
2022/01/21 04:11:34;;;;;;;9.82;3.90;;;;;;;-3.87;100.00;99908.31;4995299;28;20022;-80
2022/01/21 04:13:59;;;;;;;10.18;3.88;;;;;;;-3.83;100.00;99926.19;5012677;28;20037;-80
2022/01/21 04:16:25;;;;;;;8.93;3.58;;;;;;;-3.82;100.00;99922.81;5012780;28;20061;-80
2022/01/21 04:18:50;;;;;;;7.80;3.58;;;;;;;-3.83;100.00;99925.34;5012456;28;20028;-80
2022/01/21 04:21:15;;;;;;;9.07;3.28;;;;;;;-3.80;100.00;99933.00;5012636;28;20030;-80
2022/01/21 04:23:41;;;;;;;7.38;3.33;;;;;;;-3.84;100.00;99923.59;4970985;28;20038;-80
2022/01/21 04:26:06;;;;;;;6.13;3.65;;;;;;;-3.97;100.00;99903.88;4970970;28;20043;-80
2022/01/21 04:28:32;;;;;;;14.10;5.70;;;;;;;-3.87;100.00;99926.97;4971137;28;20039;-81
2022/01/21 04:30:59;;;;;;;12.30;3.22;;;;;;;-3.96;100.00;99905.59;4970916;28;20035;-80
2022/01/21 04:33:24;;;;;;;12.85;4.10;;;;;;;-3.91;100.00;99917.56;4954728;28;20038;-80
2022/01/21 04:35:50;;;;;;;11.60;4.28;;;;;;;-3.91;100.00;99922.66;4970745;28;20414;-80
2022/01/21 04:38:19;;;;;;;11.50;3.85;;;;;;;-3.93;100.00;99914.13;4970738;28;20034;-80
2022/01/21 04:40:56;;;;;;;8.30;3.50;;;;;;;-3.92;100.00;99923.50;4971004;28;20405;-80
2022/01/21 04:48:50;;;;;;;15.25;3.97;;;;;;;-3.96;100.00;99911.56;4970456;28;20198;-80
2022/01/21 04:51:25;;;;;;;10.25;3.22;;;;;;;-3.97;100.00;99911.50;4970339;28;20130;-80
2022/01/21 04:53:50;;;;;;;10.25;3.40;;;;;;;-4.05;100.00;99899.50;4960807;28;20041;-80
2022/01/21 04:56:16;;;;;;;13.15;4.45;;;;;;;-4.08;100.00;99883.38;4996145;28;20053;-80
2022/01/21 04:58:44;;;;;;;15.48;7.85;;;;;;;-3.97;100.00;99909.81;5012160;28;20041;-80
2022/01/21 05:01:10;;;;;;;12.60;5.20;;;;;;;-4.11;100.00;99883.31;5011957;28;20405;-80
2022/01/21 05:03:37;;;;;;;11.55;4.57;;;;;;;-3.96;100.00;99908.13;5012237;28;20030;-80
2022/01/21 05:06:03;;;;;;;12.80;3.30;;;;;;;-3.96;100.00;99913.22;5010634;28;20050;-80
2022/01/21 05:08:54;;;;;;;10.75;3.38;;;;;;;-4.01;100.00;99902.97;5010802;28;20096;-80
2022/01/21 05:11:17;;;;;;;10.70;3.20;;;;;;;-3.99;100.00;99903.88;5011223;28;20033;-81
2022/01/21 05:13:49;;;;;;;12.43;2.90;;;;;;;-3.94;100.00;99914.13;4994433;28;20379;-80
2022/01/21 05:18:53;;;;;;;12.65;5.60;;;;;;;-3.93;100.00;99914.13;5012055;28;20494;-80
2022/01/21 05:21:19;;;;;;;13.70;6.10;;;;;;;-3.95;100.00;99909.88;5011752;28;20496;-80
2022/01/21 05:23:44;;;;;;;14.35;6.00;;;;;;;-3.95;100.00;99913.25;5011867;28;20030;-80
2022/01/21 05:26:11;;;;;;;14.50;6.75;;;;;;;-3.91;100.00;99929.44;4994074;28;20061;-80
2022/01/21 05:28:37;;;;;;;15.07;7.07;;;;;;;-4.01;100.00;99910.59;5010684;28;20466;-80
2022/01/21 05:31:02;;;;;;;18.77;6.93;;;;;;;-3.91;100.00;99932.84;5011699;28;20022;-80
2022/01/21 05:33:27;;;;;;;16.92;5.65;;;;;;;-3.92;100.00;99933.69;5011989;28;20116;-80
2022/01/21 05:35:53;;;;;;;15.82;4.38;;;;;;;-3.94;100.00;99932.78;5011752;28;20030;-80
2022/01/21 05:38:18;;;;;;;13.80;4.93;;;;;;;-3.97;100.00;99924.22;5011794;28;20517;-80
2022/01/21 05:40:46;;;;;;;11.00;4.88;;;;;;;-3.92;100.00;99931.13;5011965;28;20105;-80
2022/01/21 05:43:11;;;;;;;14.40;5.38;;;;;;;-3.91;100.00;99932.84;5011721;28;20068;-80
2022/01/21 05:48:21;;;;;;;16.70;6.53;;;;;;;-3.99;100.00;99915.75;5011856;28;20044;-80
2022/01/21 05:50:46;;;;;;;24.05;9.05;;;;;;;-3.89;100.00;99933.69;4993978;28;20022;-81
2022/01/21 05:53:12;;;;;;;21.35;7.88;;;;;;;-3.90;100.00;99939.63;5011610;28;20038;-81
2022/01/21 05:55:41;;;;;;;20.80;8.48;;;;;;;-3.85;100.00;99942.25;5010388;28;20126;-81
2022/01/21 05:58:07;;;;;;;16.95;7.00;;;;;;;-3.98;100.00;99925.06;5011449;28;20054;-81
2022/01/21 06:00:33;;;;;;;15.48;7.57;;;;;;;-3.88;100.00;99939.66;5011223;28;20026;-81
2022/01/21 06:02:58;;;;;;;16.15;6.10;;;;;;;-3.92;100.00;99936.22;5013884;28;20032;-81
2022/01/21 06:05:24;;;;;;;17.27;5.03;;;;;;;-3.77;100.00;99945.78;4997357;28;20030;-76
2022/01/21 06:07:49;;;;;;;12.15;5.10;;;;;;;-3.70;100.00;99952.69;5015319;28;20030;-76
2022/01/21 06:10:15;;;;;;;12.38;4.55;;;;;;;-3.78;100.00;99918.63;5014985;28;20053;-76
2022/01/21 06:12:40;;;;;;;10.38;3.95;;;;;;;-3.66;100.00;99941.72;5015088;28;20022;-76
2022/01/21 06:15:06;;;;;;;11.73;4.10;;;;;;;-3.61;100.00;99941.78;5014742;28;20548;-76
2022/01/21 06:17:31;;;;;;;11.82;5.13;;;;;;;-3.62;100.00;99932.44;4997300;28;20037;-76
2022/01/21 06:19:57;;;;;;;15.23;5.68;;;;;;;-3.68;100.00;99927.25;5014654;28;20057;-76
2022/01/21 06:22:22;;;;;;;18.52;4.75;;;;;;;-3.63;100.00;99934.09;5015211;28;20099;-76
2022/01/21 06:24:47;;;;;;;15.75;5.35;;;;;;;-3.49;100.00;99936.88;5014817;28;20030;-75
2022/01/21 06:27:13;;;;;;;12.38;4.00;;;;;;;-3.31;100.00;99954.09;5014650;28;20436;-76
2022/01/21 06:29:38;;;;;;;11.43;4.78;;;;;;;-3.23;100.00;99954.22;5014761;28;20026;-76
2022/01/21 06:32:04;;;;;;;20.42;4.70;;;;;;;-3.14;100.00;99960.28;5014415;28;20491;-76
2022/01/21 06:34:30;;;;;;;12.93;4.18;;;;;;;-3.07;100.00;99958.69;5014439;28;20072;-76
2022/01/21 06:36:55;;;;;;;11.57;4.55;;;;;;;-3.30;100.00;99902.31;5014607;28;20034;-75
2022/01/21 06:39:21;;;;;;;16.13;4.90;;;;;;;-2.94;100.00;99944.41;5014426;28;20053;-75
2022/01/21 06:41:47;;;;;;;13.77;4.47;;;;;;;-2.78;100.00;99961.59;5014617;28;20105;-81
2022/01/21 06:44:14;;;;;;;16.63;5.07;;;;;;;-2.71;100.00;99958.28;4996541;28;20481;-81
2022/01/21 06:46:39;;;;;;;11.23;3.97;;;;;;;-2.77;100.00;99940.38;4996815;28;20030;-81
2022/01/21 06:49:04;;;;;;;13.32;4.20;;;;;;;-2.62;100.00;99954.97;5014061;28;20513;-81
2022/01/21 06:51:30;;;;;;;12.07;4.30;;;;;;;-2.56;100.00;99968.66;5014568;28;20033;-81
2022/01/21 06:53:55;;;;;;;15.18;4.45;;;;;;;-2.51;100.00;99968.72;4996784;28;20117;-81
2022/01/21 06:56:21;;;;;;;14.75;4.93;;;;;;;-2.57;100.00;99958.41;5015987;28;20030;-81
2022/01/21 06:58:46;;;;;;;12.85;5.50;;;;;;;-2.68;100.00;99970.22;5034151;28;20060;-81
2022/01/21 07:01:11;;;;;;;13.63;5.07;;;;;;;-2.82;100.00;99958.16;5015820;28;20065;-81
2022/01/21 07:03:37;;;;;;;7.90;3.72;;;;;;;-2.78;100.00;99982.84;5016003;28;20025;-81
2022/01/21 07:06:02;;;;;;;9.70;3.83;;;;;;;-2.82;100.00;99986.19;5016060;28;20040;-81
2022/01/21 07:08:28;;;;;;;16.17;6.88;;;;;;;-3.00;100.00;99968.09;5033772;28;20029;-81
2022/01/21 07:10:53;;;;;;;31.88;12.10;;;;;;;-2.91;100.00;99985.19;5016081;28;20106;-81
2022/01/21 07:13:19;;;;;;;19.60;7.88;;;;;;;-2.88;100.00;99998.00;5015173;28;20038;-81
2022/01/21 07:15:44;;;;;;;13.70;7.10;;;;;;;-3.05;100.00;99977.38;5015819;28;20029;-80
2022/01/21 07:18:10;;;;;;;21.05;10.50;;;;;;;-2.86;100.00;99993.78;4991213;28;20038;-81
2022/01/21 07:20:35;;;;;;;15.10;7.32;;;;;;;-2.86;100.00;99996.34;4975484;28;20470;-81
2022/01/21 07:23:01;;;;;;;24.50;13.60;;;;;;;-2.94;100.00;99972.44;4991407;28;20117;-81
2022/01/21 07:25:27;;;;;;;21.42;10.10;;;;;;;-2.58;100.00;99994.97;4991665;28;20039;-81
2022/01/21 07:27:53;;;;;;;13.98;6.43;;;;;;;-2.34;100.00;99995.25;4975157;28;20026;-81
2022/01/21 07:30:18;;;;;;;19.50;9.35;;;;;;;-2.14;100.00;100000.56;4991275;28;20065;-81
2022/01/21 07:32:44;;;;;;;33.78;12.93;;;;;;;-2.01;100.00;99999.84;4991392;28;20552;-81
2022/01/21 07:35:10;;;;;;;15.10;7.95;;;;;;;-1.92;100.00;99993.13;4974768;28;20473;-81
2022/01/21 07:37:37;;;;;;;17.10;12.38;;;;;;;-1.80;100.00;100004.31;4991710;28;20030;-81
2022/01/21 07:40:08;;;;;;;12.80;6.60;;;;;;;-1.81;100.00;99983.88;4975106;28;20577;-81
2022/01/21 07:42:33;;;;;;;10.45;6.65;;;;;;;-1.62;100.00;100010.41;4975063;28;20101;-81
2022/01/21 07:44:59;;;;;;;9.73;5.00;;;;;;;-1.60;100.00;99989.16;4974788;28;20038;-81
2022/01/21 07:47:24;;;;;;;10.35;4.55;;;;;;;-1.40;100.00;100006.31;4991123;28;20544;-81
2022/01/21 07:49:51;;;;;;;11.98;4.22;;;;;;;-1.25;100.00;100006.44;4991170;28;20072;-81
2022/01/21 07:52:16;;;;;;;11.05;4.75;;;;;;;-1.12;100.00;100008.22;4991372;28;20109;-81
2022/01/21 07:54:42;;;;;;;7.10;4.07;;;;;;;-0.96;100.00;100008.34;4996495;28;20430;-81
2022/01/21 07:57:08;;;;;;;9.40;4.47;;;;;;;-0.82;100.00;100005.00;5020250;28;20046;-81
2022/01/21 07:59:34;;;;;;;12.95;5.18;;;;;;;-0.69;100.00;100008.47;5033037;28;20087;-81
2022/01/21 08:02:00;;;;;;;13.57;4.18;;;;;;;-0.63;100.00;100000.81;5031316;28;20447;-81
2022/01/21 08:04:25;;;;;;;8.75;3.55;;;;;;;-0.47;100.00;100011.09;5031935;28;20370;-81
2022/01/21 08:06:50;;;;;;;13.07;6.35;;;;;;;-0.38;100.00;100014.56;5031793;28;20446;-81
2022/01/21 08:09:16;;;;;;;10.13;4.88;;;;;;;-0.23;100.00;100016.31;5031491;28;20028;-81
2022/01/21 08:11:42;;;;;;;15.95;6.55;;;;;;;-0.11;100.00;100001.00;5032729;28;20406;-81
2022/01/21 08:14:07;;;;;;;22.55;9.02;;;;;;;-0.17;100.00;100024.03;5034659;28;20422;-81
2022/01/21 08:16:35;;;;;;;29.02;11.40;;;;;;;-0.47;100.00;100026.47;5041763;28;20056;-81
2022/01/21 08:19:03;;;;;;;21.10;8.73;;;;;;;-0.72;100.00;100023.78;5039434;28;20059;-81
2022/01/21 08:21:28;;;;;;;13.77;5.60;;;;;;;-0.55;100.00;100024.75;5032562;28;20033;-81
2022/01/21 08:23:55;;;;;;;7.72;4.45;;;;;;;-0.50;100.00;100009.41;5048354;28;20392;-81
2022/01/21 08:26:23;;;;;;;14.32;6.80;;;;;;;-0.26;100.00;100024.81;5051836;28;20067;-81
2022/01/21 08:28:50;;;;;;;14.55;6.22;;;;;;;-0.19;100.00;100030.84;5052447;28;20059;-81
2022/01/21 08:31:15;;;;;;;15.20;6.78;;;;;;;-0.13;100.00;100019.75;5044918;28;20068;-81
2022/01/21 08:33:41;;;;;;;15.48;5.65;;;;;;;-0.08;100.00;100020.63;5032551;28;20057;-81
2022/01/21 08:36:10;;;;;;;19.45;6.22;;;;;;;0.00;100.00;100042.00;5032001;28;20116;-81
2022/01/21 08:38:35;;;;;;;12.23;5.03;;;;;;;0.04;100.00;100030.03;5032188;28;20504;-81
2022/01/21 08:41:01;;;;;;;13.35;6.07;;;;;;;0.05;100.00;100042.00;5031919;28;20059;-81
2022/01/21 08:43:26;;;;;;;12.23;6.20;;;;;;;0.09;99.01;100042.00;5031944;28;20455;-81
2022/01/21 08:45:52;;;;;;;21.42;10.15;;;;;;;0.17;98.84;100052.25;5031918;28;20029;-81
2022/01/21 08:48:17;;;;;;;16.23;7.20;;;;;;;0.33;98.62;100071.06;5038421;28;20384;-81
2022/01/21 08:50:43;;;;;;;30.02;12.50;;;;;;;0.36;97.75;100071.94;5051958;28;20102;-81
2022/01/21 08:53:35;;;;;;;25.90;12.50;;;;;;;0.45;98.01;100074.50;5051741;28;20447;-81
2022/01/21 08:55:53;;;;;;;20.80;11.25;;;;;;;0.49;97.29;100072.81;5051669;28;20032;-81
2022/01/21 08:58:19;;;;;;;12.60;4.97;;;;;;;0.46;96.51;100067.66;5032997;28;20053;-81
2022/01/21 09:00:45;;;;;;;25.70;10.85;;;;;;;0.23;96.04;100055.69;5031913;28;20057;-81
2022/01/21 09:03:10;;;;;;;17.90;7.78;;;;;;;0.21;96.68;100077.91;5013899;28;20030;-81
2022/01/21 09:05:35;;;;;;;14.05;5.40;;;;;;;0.16;97.17;100051.41;5031735;28;20030;-81
2022/01/21 09:08:01;;;;;;;43.75;20.48;;;;;;;0.46;96.74;100067.66;5031423;28;20060;-81
2022/01/21 09:10:26;;;;;;;37.78;15.32;;;;;;;0.47;96.46;100083.06;5031681;28;20026;-81
2022/01/21 09:12:51;;;;;;;17.88;7.93;;;;;;;0.39;96.45;100092.44;5013828;28;20048;-81
2022/01/21 09:15:23;;;;;;;37.22;16.25;;;;;;;0.20;95.95;100083.84;5013786;28;20396;-81
2022/01/21 09:17:49;;;;;;;49.55;19.45;;;;;;;0.16;96.60;100077.00;5013981;28;20037;-81
2022/01/21 09:20:14;;;;;;;15.20;7.43;;;;;;;0.29;96.11;100082.16;5013739;28;20029;-81
2022/01/21 09:22:40;;;;;;;26.52;12.23;;;;;;;0.27;96.08;100079.59;5005390;28;20037;-81
2022/01/21 09:25:06;;;;;;;48.80;20.02;;;;;;;0.13;96.25;100089.84;4994011;28;20119;-81
2022/01/21 09:27:31;;;;;;;88.55;36.80;;;;;;;-0.08;96.36;100075.25;5011721;28;20034;-81
2022/01/21 09:29:57;;;;;;;91.05;38.13;;;;;;;-0.17;97.04;100082.91;5012137;28;20033;-81
2022/01/21 09:32:23;;;;;;;62.83;25.85;;;;;;;-0.27;96.47;100088.81;5011824;28;20030;-81
2022/01/21 09:34:48;;;;;;;43.30;17.52;;;;;;;-0.41;97.47;100068.28;4994186;28;20390;-81
2022/01/21 09:37:14;;;;;;;22.48;10.02;;;;;;;-0.46;97.96;100077.66;5015267;28;20080;-81
2022/01/21 09:39:39;;;;;;;76.88;26.50;;;;;;;-0.52;97.48;100081.03;5015842;28;20064;-81
2022/01/21 09:42:06;;;;;;;100.53;36.00;;;;;;;-0.52;97.87;100075.06;4997633;28;20469;-81
2022/01/21 09:44:32;;;;;;;150.63;47.60;;;;;;;-0.53;98.15;100073.34;5015624;28;20115;-81
2022/01/21 09:47:00;;;;;;;512.58;171.30;;;;;;;-0.32;98.23;100088.81;4997829;28;20030;-81
2022/01/21 09:49:26;;;;;;;216.65;62.20;;;;;;;-0.18;98.01;100082.88;5015508;28;20049;-81
2022/01/21 09:52:00;;;;;;;355.52;105.00;;;;;;;-0.26;96.98;100060.66;4997878;28;20117;-81
2022/01/21 09:54:28;;;;;;;283.63;90.65;;;;;;;-0.06;97.09;100062.44;5015482;28;20026;-81
2022/01/21 09:56:57;;;;;;;310.35;109.95;;;;;;;-0.06;97.12;100060.72;5015131;28;20065;-81
2022/01/21 09:59:26;;;;;;;83.78;36.15;;;;;;;-0.02;96.29;100047.09;4997666;28;20029;-81
2022/01/21 10:01:58;;;;;;;37.15;16.48;;;;;;;-0.05;96.51;100054.75;5017015;28;20026;-81
2022/01/21 10:04:33;;;;;;;158.25;68.45;;;;;;;-0.22;97.04;100056.41;4993044;28;20049;-81
2022/01/21 10:07:00;;;;;;;116.55;55.63;;;;;;;-0.38;97.15;100044.41;4993117;28;20133;-81
2022/01/21 10:09:25;;;;;;;123.78;57.55;;;;;;;-0.51;97.42;100043.50;4976710;28;20057;-81
2022/01/21 10:11:53;;;;;;;57.08;24.08;;;;;;;-0.30;97.36;100053.81;4993307;28;20043;-81
2022/01/21 10:14:24;;;;;;;47.88;23.15;;;;;;;-0.39;96.68;100061.47;4976479;28;20137;-81
2022/01/21 10:16:49;;;;;;;;;;;;;;;-0.27;97.50;100078.59;4977083;28;20056;-81
2022/01/21 10:19:23;;;;;;;127.18;68.40;;;;;;;-0.17;97.01;100053.88;4992752;28;19910;-81
2022/01/21 10:22:08;;;;;;;133.48;74.75;;;;;;;-0.10;96.00;100071.81;4992745;28;20151;-81
2022/01/21 10:24:37;;;;;;;47.03;30.58;;;;;;;-0.13;96.69;100058.16;4976608;28;20028;-81
2022/01/21 10:27:03;;;;;;;39.97;23.77;;;;;;;-0.03;97.21;100057.34;4992547;28;20030;-81
2022/01/21 10:29:39;;;;;;;18.08;10.80;;;;;;;-0.01;97.19;100038.56;4976305;28;20498;-81
2022/01/21 10:32:07;;;;;;;10.50;5.47;;;;;;;0.08;95.63;100050.53;4976087;28;20068;-81
2022/01/21 10:34:39;;;;;;;14.20;5.57;;;;;;;0.03;96.15;100062.47;4976212;28;20044;-81
2022/01/21 10:37:37;;;;;;;13.63;7.53;;;;;;;-0.07;96.28;100055.63;4992498;28;20031;-82
2022/01/21 10:40:05;;;;;;;20.05;7.00;;;;;;;-0.09;96.49;100070.09;4976017;28;20033;-81
2022/01/21 10:42:31;;;;;;;10.65;5.80;;;;;;;-0.09;97.27;100067.53;5011736;28;20477;-81
2022/01/21 10:44:59;;;;;;;12.85;4.88;;;;;;;-0.13;96.81;100064.13;5034419;28;20021;-81
2022/01/21 10:47:29;;;;;;;10.98;5.93;;;;;;;-0.19;96.85;100055.56;5015536;28;20029;-81
2022/01/21 10:50:12;;;;;;;12.95;6.53;;;;;;;-0.22;96.96;100043.63;5016486;28;20132;-81
2022/01/21 10:52:50;;;;;;;10.80;5.75;;;;;;;-0.10;97.38;100056.47;5016417;28;20501;-81
2022/01/21 10:55:29;;;;;;;15.30;6.70;;;;;;;-0.03;98.45;100054.78;5016230;28;20381;-81
2022/01/21 10:58:16;;;;;;;15.05;6.25;;;;;;;-0.05;97.37;100053.91;5033860;28;20049;-81
2022/01/21 11:01:20;;;;;;;19.63;8.90;;;;;;;-0.03;97.28;100054.78;5025441;28;20605;-81
2022/01/21 11:04:04;;;;;;;12.43;4.95;;;;;;;-0.06;97.07;100045.38;4915112;29;20032;-81
2022/01/21 11:06:43;;;;;;;9.80;3.83;;;;;;;-0.05;96.74;100064.16;4915237;29;20044;-81
2022/01/21 11:09:15;;;;;;;9.85;5.15;;;;;;;-0.07;96.42;100047.94;4915094;29;20552;-81
2022/01/21 11:11:42;;;;;;;12.50;6.18;;;;;;;-0.09;96.31;100054.75;4915091;29;20072;-81
2022/01/21 11:14:18;;;;;;;10.00;5.13;;;;;;;-0.15;95.33;100047.91;4899062;29;20033;-81
2022/01/21 11:16:46;;;;;;;8.10;3.45;;;;;;;-0.13;96.25;100055.59;4915079;29;20032;-81
2022/01/21 11:19:16;;;;;;;9.82;3.50;;;;;;;-0.14;96.11;100054.72;4914801;29;20044;-81
2022/01/21 11:21:56;;;;;;;8.45;3.50;;;;;;;-0.20;96.32;100039.38;4915028;29;20072;-81
2022/01/21 11:24:25;;;;;;;10.48;4.40;;;;;;;-0.18;96.22;100040.22;4899046;29;20044;-81
2022/01/21 11:27:22;;;;;;;11.98;4.88;;;;;;;-0.09;96.77;100047.06;4933616;29;20043;-81
2022/01/21 11:29:49;;;;;;;8.85;3.42;;;;;;;-0.07;96.91;100047.94;4877240;29;20080;-81
2022/01/21 11:32:16;;;;;;;8.75;4.25;;;;;;;-0.12;97.10;100041.97;4876825;29;20045;-81
2022/01/21 11:34:42;;;;;;;8.68;3.97;;;;;;;-0.14;96.78;100041.09;4877163;29;20041;-82
2022/01/21 11:37:08;;;;;;;8.40;3.67;;;;;;;-0.17;97.22;100046.19;4892380;29;20049;-82
2022/01/21 11:39:34;;;;;;;12.07;4.30;;;;;;;-0.18;97.13;100040.22;4933599;29;20506;-82
2022/01/21 11:42:02;;;;;;;11.63;5.78;;;;;;;0.10;97.74;100033.47;4933363;29;20055;-82
2022/01/21 11:44:29;;;;;;;12.93;4.95;;;;;;;0.53;95.93;100037.78;4933519;29;20163;-82
2022/01/21 11:47:29;;;;;;;10.80;4.03;;;;;;;0.68;94.91;100036.09;4933411;29;20032;-82
2022/01/21 11:49:56;;;;;;;11.63;5.13;;;;;;;0.83;94.39;100026.66;4933355;29;20119;-82
2022/01/21 11:52:22;;;;;;;20.73;7.05;;;;;;;0.95;93.95;100030.06;4933173;29;20291;-82
2022/01/21 11:54:49;;;;;;;19.38;7.40;;;;;;;1.03;93.75;100044.59;4917272;29;20499;-81
2022/01/21 11:57:24;;;;;;;13.25;5.30;;;;;;;0.93;93.52;100021.53;4942018;28;20119;-81
2022/01/21 12:00:17;;;;;;;18.65;8.38;;;;;;;0.89;93.59;100017.25;4952207;28;20039;-81
2022/01/21 12:02:38;;;;;;;15.88;6.75;;;;;;;0.76;94.45;99997.63;4950314;29;20067;-82
2022/01/21 12:05:11;;;;;;;17.42;6.25;;;;;;;0.76;94.92;99992.50;4981537;28;20096;-81
2022/01/21 12:07:44;;;;;;;18.65;8.05;;;;;;;0.78;94.78;99995.03;5032681;28;20032;-81
2022/01/21 12:10:14;;;;;;;15.50;6.72;;;;;;;0.83;94.77;99980.50;5014578;28;20036;-81
2022/01/21 12:12:48;;;;;;;14.23;6.03;;;;;;;0.72;94.67;99975.41;5032845;28;20025;-81
2022/01/21 12:21:31;;;;;;;9.73;4.13;;;;;;;0.13;96.35;99978.84;4971270;28;20431;-81